Latest Coastal Weather Observations for Portland Airport

IDV60701

Issued at 1:11 pm EST Tuesday 21 April 2015 (issued every 10 minutes, with the page automatically refreshed every 10 minutes)

About coastal observations | Map of coastal stations | Coastal observations for VIC | Marine services | Other Formats
Station Details ID: 090171 Name: CASHMORE AIRPORT Lat: -38.31 Lon: 141.47 Height: 80.9 m
Data from the previous 72 hours. | See also: Recent months at Portland Airport
Date/Time
EST
Temp

°C
Wind Pressure Rain
since 9am
mm
Weather Cloud Vis
km
Sea
Height
m
Swell
Dir
 
Speed
knots
Gust
knots
hPa Trend Height
m
Period
s
Dir
21/01:00pm 14.5 SE 10 15 1033.4 - 0.0 - Cloudy 10 - - - -
21/12:30pm 14.8 SE 10 14 1033.8 - 0.0 - Cloudy 10 - - - -
21/12:00pm 14.8 SE 11 17 1034.2 - 0.0 - Cloudy 10 - - - -
21/11:30am 14.6 SE 10 15 1034.6 - 0.0 - Cloudy 10 - - - -
21/11:00am 14.4 SSE 9 14 1034.8 - 0.0 - Cloudy 10 - - - -
21/10:30am 14.6 SE 11 15 1034.9 - 0.0 - Cloudy 10 - - - -
21/10:00am 14.4 SSE 8 13 1035.1 - 0.0 - Cloudy 10 - - - -
21/09:30am 14.0 SSE 9 15 1035.3 - 0.0 - Cloudy 10 - - - -
21/09:00am 13.9 SSE 9 13 1035.3 - 0.0 - Cloudy 10 - - - -
21/08:30am 13.9 SSE 9 13 1035.3 - 0.0 - Cloudy 10 - - - -
21/08:00am 13.3 SSE 8 12 1035.0 - 0.0 - Cloudy 10 - - - -
21/07:30am 12.5 SSE 7 10 1034.8 - 0.0 - Cloudy 10 - - - -
21/07:00am 12.1 SSE 5 7 1034.6 - 0.0 - Partly cloudy 10 - - - -
21/06:30am 11.6 SSE 5 7 1034.7 - 0.0 - Partly cloudy 10 - - - -
21/06:00am 12.8 SE 7 11 1034.8 - 0.0 - Cloudy 10 - - - -
21/05:30am 12.4 SE 6 9 1034.7 - 0.0 - Cloudy 10 - - - -
21/05:00am 12.5 SSE 7 10 1034.7 - 0.0 - Partly cloudy 10 - - - -
21/04:30am 12.2 SE 6 7 1034.7 - 0.0 - Partly cloudy 10 - - - -
21/04:00am 12.0 SSE 6 7 1034.7 - 0.0 - Partly cloudy 10 - - - -
21/03:30am 12.5 SSE 6 10 1035.0 - 0.0 - - 10 - - - -
21/03:00am 12.5 SSE 5 8 1035.2 - 0.0 - Cloudy 10 - - - -
21/02:30am 12.3 SSE 6 9 1035.4 - 0.0 - Cloudy 10 - - - -
21/02:00am 12.4 SSE 6 11 1035.9 - 0.0 - Cloudy 10 - - - -
21/01:30am 12.5 SSE 6 9 1035.9 - 0.0 - Cloudy 10 - - - -
21/01:00am 12.2 SSE 6 9 1036.1 - 0.0 - Cloudy 10 - - - -
21/12:30am 12.5 SSE 7 10 1036.2 - 0.0 - Cloudy 10 - - - -
21/12:00am 12.6 SSE 7 10 1036.3 - 0.0 - Cloudy 10 - - - -
 
Date/Time
EST
Temp

°C
Wind Pressure Rain
since 9am
mm
Weather Cloud Vis
km
Sea
Height
m
Swell
Dir
 
Speed
knots
Gust
knots
hPa Trend Height
m
Period
s
Dir
20/11:30pm 12.3 SSE 6 8 1036.5 - 0.0 - Partly cloudy 10 - - - -
20/11:00pm 12.5 SSE 7 12 1036.7 - 0.0 - Partly cloudy 10 - - - -
20/10:30pm 12.6 SSE 7 10 1037.0 - 0.0 - Partly cloudy 10 - - - -
20/10:00pm 12.5 SSE 6 9 1037.1 - 0.0 - Partly cloudy 10 - - - -
20/09:30pm 12.3 SSE 7 10 1037.2 - 0.0 - Partly cloudy 10 - - - -
20/09:00pm 12.2 SSE 6 9 1037.0 - 0.0 - Cloudy 10 - - - -
20/08:30pm 12.3 SSE 8 12 1037.2 - 0.0 - Partly cloudy 10 - - - -
20/08:00pm 12.4 SSE 5 9 1037.2 - 0.0 - Partly cloudy 10 - - - -
20/07:30pm 12.4 SSE 6 9 1037.1 - 0.0 - Partly cloudy 10 - - - -
20/07:00pm 11.9 SSE 6 12 1037.1 - 0.0 - Partly cloudy 10 - - - -
20/06:30pm 11.6 SSE 6 8 1036.9 - 0.0 - Partly cloudy 10 - - - -
20/06:00pm 11.6 SSE 5 9 1036.9 - 0.0 - Mostly clear 10 - - - -
20/05:30pm 12.2 SSE 6 9 1036.9 - 0.0 - Partly cloudy 10 - - - -
20/05:00pm 12.6 SSE 7 14 1036.8 - 0.0 - Partly cloudy 10 - - - -
20/04:30pm 13.1 SSE 8 12 1037.1 - 0.0 - Partly cloudy 10 - - - -
20/04:00pm 13.2 SSE 7 12 1037.0 - 0.0 - Partly cloudy 10 - - - -
20/03:30pm 14.3 SSE 9 15 1037.0 - 0.0 - Partly cloudy 10 - - - -
20/03:00pm 14.4 SSE 9 15 1036.9 - 0.0 - Partly cloudy 10 - - - -
20/02:30pm 14.0 SSE 10 14 1036.9 - 0.0 - Partly cloudy 10 - - - -
20/02:00pm 13.9 SSE 9 15 1037.0 - 0.0 - Partly cloudy 10 - - - -
20/01:30pm 13.3 S 8 14 1037.4 - 0.0 - Partly cloudy 10 - - - -
20/01:00pm 13.8 S 9 13 1037.7 - 0.0 - Partly cloudy 10 - - - -
20/12:30pm 14.0 SSE 9 13 1038.0 - 0.0 - Partly cloudy 10 - - - -
20/12:00pm 13.7 SSE 9 14 1038.5 - 0.0 - Cloudy 10 - - - -
20/11:30am 13.6 S 8 13 1038.6 - 0.0 - - 10 - - - -
20/11:00am 13.8 SSE 8 14 1038.7 - 0.0 - - 10 - - - -
20/10:30am 13.4 S 9 15 1038.8 - 0.0 - Partly cloudy 10 - - - -
20/10:00am 13.4 S 8 13 1038.8 - 0.0 - - 10 - - - -
20/09:30am 13.5 SSE 7 11 1038.8 - 0.0 - - 10 - - - -
20/09:00am 12.5 SSE 7 11 1038.8 - 0.8 - Mostly cloudy 10 - - - -
20/08:30am 11.5 SSE 6 9 1038.8 - 0.8 - Partly cloudy 10 - - - -
20/08:00am 8.5 S 1 3 1038.6 - 0.8 - - 10 - - - -
20/07:30am 6.7 CALM 0 1 1038.3 - 0.8 - - 10 - - - -
20/07:00am 8.0 S 3 5 1038.3 - 0.8 - - 10 - - - -
20/06:30am 9.5 SSW 5 6 1038.3 - 0.8 - Partly cloudy 10 - - - -
20/06:00am 9.4 SSW 5 8 1038.2 - 0.8 Recent precip. Cloudy 10 - - - -
20/05:30am 10.0 S 8 14 1038.2 - 0.8 - Partly cloudy 9 - - - -
20/05:00am 9.5 SSE 3 5 1037.8 - 0.4 - Partly cloudy 10 - - - -
20/04:30am 8.6 SSE 4 5 1037.6 - 0.4 - Partly cloudy 10 - - - -
20/04:00am 9.5 SSW 4 7 1037.4 - 0.4 - Partly cloudy 10 - - - -
20/03:30am 9.1 S 4 6 1037.3 - 0.4 - Partly cloudy 10 - - - -
20/03:00am 7.8 CALM 0 0 1037.4 - 0.4 - Cloudy 10 - - - -
20/02:30am 7.6 S 3 5 1037.5 - 0.4 - Partly cloudy 10 - - - -
20/02:00am 6.7 S 2 4 1037.4 - 0.4 - Partly cloudy 10 - - - -
20/01:30am 6.8 S 1 4 1037.4 - 0.4 - - 10 - - - -
20/01:00am 7.1 S 2 4 1037.5 - 0.4 - - 10 - - - -
20/12:30am 7.6 SE 3 5 1037.5 - 0.4 - Partly cloudy 10 - - - -
20/12:00am 8.5 SSE 4 6 1037.6 - 0.4 - Mostly clear 10 - - - -
 
Date/Time
EST
Temp

°C
Wind Pressure Rain
since 9am
mm
Weather Cloud Vis
km
Sea
Height
m
Swell
Dir
 
Speed
knots
Gust
knots
hPa Trend Height
m
Period
s
Dir
19/11:30pm 8.8 SSE 4 6 1037.7 - 0.4 - Partly cloudy 10 - - - -
19/11:00pm 9.0 S 3 4 1037.7 - 0.4 - Partly cloudy 10 - - - -
19/10:30pm 9.1 SE 4 7 1037.7 - 0.4 - Partly cloudy 10 - - - -
19/10:00pm 10.1 SSE 5 8 1037.6 - 0.0 - Partly cloudy 10 - - - -
19/09:30pm 10.0 SE 6 7 1037.4 - 0.0 - Partly cloudy 10 - - - -
19/09:00pm 9.8 SSE 5 9 1037.2 - 0.0 - Mostly cloudy 10 - - - -
19/08:30pm 9.2 SSE 4 5 1036.8 - 0.0 - Partly cloudy 10 - - - -
19/08:00pm 9.7 SSE 5 8 1036.5 - 0.0 - Partly cloudy 10 - - - -
19/07:30pm 10.0 S 6 10 1036.1 - 0.0 - Partly cloudy 10 - - - -
19/07:00pm 10.1 S 7 9 1035.7 - 0.0 - - 10 - - - -
19/06:30pm 9.8 S 6 10 1035.3 - 0.0 - Partly cloudy 10 - - - -
19/06:00pm 10.0 S 5 9 1035.0 - 0.0 - Mostly clear 10 - - - -
19/05:30pm 11.2 SSE 8 12 1034.8 - 0.0 - Partly cloudy 10 - - - -
19/05:00pm 11.8 S 8 15 1034.5 - 0.0 - - 10 - - - -
19/04:30pm 12.3 S 9 13 1034.3 - 0.0 - - 10 - - - -
19/04:00pm 12.6 S 10 15 1034.0 - 0.0 - - 10 - - - -
19/03:30pm 12.7 S 10 17 1033.8 - 0.0 - Partly cloudy 10 - - - -
19/03:00pm 13.0 S 11 16 1033.5 - 0.0 - Mostly clear 10 - - - -
19/02:30pm 12.8 S 11 17 1033.4 - 0.0 - Partly cloudy 10 - - - -
19/02:00pm 13.0 S 11 19 1033.2 - 0.0 - Partly cloudy 10 - - - -
19/01:30pm 13.2 S 10 16 1032.9 - 0.0 - Partly cloudy 10 - - - -
19/01:00pm 12.9 S 11 19 1032.8 - 0.0 - Partly cloudy 10 - - - -
19/12:30pm 13.6 S 11 17 1032.8 - 0.0 - Partly cloudy 10 - - - -
19/12:00pm 13.2 S 11 16 1032.7 - 0.0 - Mostly clear 10 - - - -
19/11:30am 12.2 S 11 18 1032.5 - 0.0 - Partly cloudy 10 - - - -
19/11:00am 12.4 S 13 23 1032.2 - 0.0 - Partly cloudy 10 - - - -
19/10:30am 12.2 S 11 15 1031.7 - 0.0 - Partly cloudy 10 - - - -
19/10:00am 11.7 S 10 17 1031.2 - 0.0 - Partly cloudy 10 - - - -
19/09:30am 11.4 S 9 15 1030.8 - 0.0 - Partly cloudy 10 - - - -
19/09:00am 9.9 S 10 22 1030.4 - 8.8 Recent precip. Cloudy 10 - - - -
19/08:30am 9.3 SSW 13 23 1030.1 - 8.6 - Partly cloudy 9 - - - -
19/08:00am 10.7 S 9 15 1029.0 - 8.4 - Partly cloudy 10 - - - -
19/07:30am 10.1 SSW 9 17 1028.2 - 8.4 - Partly cloudy 10 - - - -
19/07:00am 10.3 SSW 9 16 1027.5 - 8.4 - Partly cloudy 10 - - - -
19/06:30am 9.9 SSW 11 20 1026.7 - 8.4 - Partly cloudy 10 - - - -
19/06:00am 9.5 SSW 12 27 1026.2 - 8.0 Rain Cloudy 10 - - - -
19/05:30am 9.5 SSW 9 17 1025.5 - 7.6 - - 10 - - - -
19/05:00am 9.3 SSW 12 19 1025.2 - 7.6 - Partly cloudy 10 - - - -
19/04:30am 10.5 SSW 10 16 1024.4 - 7.4 - Partly cloudy 10 - - - -
19/04:00am 9.6 SSW 8 11 1024.0 - 7.4 - Partly cloudy 10 - - - -
19/03:30am 10.6 SSW 12 19 1023.6 - 7.0 - Partly cloudy 10 - - - -
19/03:00am 10.6 SSW 9 16 1023.3 - 7.0 - Partly cloudy 10 - - - -
19/02:30am 10.7 SSW 10 16 1022.9 - 7.0 - Partly cloudy 10 - - - -
19/02:00am 10.7 SSW 11 18 1022.7 - 7.0 - Partly cloudy 10 - - - -
19/01:30am 10.5 SW 11 16 1022.4 - 7.0 - Partly cloudy 10 - - - -
19/01:00am 9.4 SW 9 14 1022.1 - 7.0 - Partly cloudy 10 - - - -
19/12:32am 9.4 WSW 15 25 1021.7 - 7.0 - Partly cloudy 10 - - - -
19/12:30am 9.4 WSW 16 25 1021.7 - 7.0 - Partly cloudy 10 - - - -
19/12:00am 10.8 SW 11 17 1021.3 - 6.8 - Mostly cloudy 10 - - - -
 
Date/Time
EST
Temp

°C
Wind Pressure Rain
since 9am
mm
Weather Cloud Vis
km
Sea
Height
m
Swell
Dir
 
Speed
knots
Gust
knots
hPa Trend Height
m
Period
s
Dir
18/11:30pm 11.1 SW 11 19 1021.1 - 6.8 - Partly cloudy 10 - - - -
18/11:00pm 11.2 SW 11 17 1020.8 - 6.8 - Partly cloudy 10 - - - -
18/10:30pm 11.4 SSW 10 16 1020.6 - 6.8 - Partly cloudy 10 - - - -
18/10:00pm 11.2 SW 7 13 1019.8 - 6.8 - Partly cloudy 10 - - - -
18/09:30pm 10.7 SW 11 17 1019.3 - 6.8 - - 10 - - - -
18/09:00pm 10.4 SW 9 13 1018.8 - 6.8 Recent precip. Partly cloudy 10 - - - -
18/08:30pm 10.1 SSW 10 21 1018.3 - 6.8 - Partly cloudy 10 - - - -
18/08:00pm 10.4 SW 9 15 1017.7 - 6.6 - Partly cloudy 10 - - - -
18/07:30pm 11.5 SW 10 17 1017.2 - 6.2 - Partly cloudy 10 - - - -
18/07:00pm 11.6 SW 10 15 1016.4 - 6.0 - Partly cloudy 10 - - - -
18/06:30pm 11.9 SW 12 16 1015.8 - 6.0 - Partly cloudy 10 - - - -
18/06:00pm 12.1 WSW 12 20 1015.2 - 6.0 - Cloudy 10 - - - -
18/05:30pm 12.1 WSW 12 18 1014.6 - 6.0 - Partly cloudy 10 - - - -
18/05:00pm 11.8 WSW 9 14 1014.0 - 6.0 - Partly cloudy 10 - - - -
18/04:30pm 11.7 W 13 26 1013.9 - 6.0 - Partly cloudy 7 - - - -
18/04:00pm 11.7 W 10 13 1013.5 - 5.8 - Partly cloudy 10 - - - -
18/03:30pm 11.2 WSW 12 17 1013.4 - 5.6 - Partly cloudy 9 - - - -
18/03:05pm 11.2 WSW 15 21 1013.1 - 5.4 - Partly cloudy 9 - - - -
18/03:00pm 11.1 WSW 16 21 1013.1 - 5.2 Recent precip. Cloudy 9 - - - -
18/02:30pm 12.0 WSW 12 17 1012.5 - 4.2 - Partly cloudy 6 - - - -
18/02:27pm 11.9 WSW 12 17 1012.4 - 4.2 - Partly cloudy 6 - - - -
18/02:00pm 11.7 SW 12 21 1012.4 - 4.0 - Cloudy 10 - - - -
18/01:43pm 11.8 SW 14 20 1012.2 - 3.8 - Cloudy 10 - - - -
18/01:30pm 12.0 SW 17 27 1012.0 - 3.6 - Partly cloudy 5 - - - -
18/01:28pm 11.9 SW 17 27 1011.9 - 3.6 - Partly cloudy 4 - - - -
18/01:14pm 12.5 WSW 19 26 1011.8 - 3.2 - Partly cloudy 4 - - - -

Other Formats:

Comma delimited format used in spreadsheet applications
http://www.bom.gov.au/fwo/IDV60701/IDV60701.94828.axf

JavaScript Object Notation format (JSON) in row-major order
http://www.bom.gov.au/fwo/IDV60701/IDV60701.94828.json